Time;durP1;ratioP1;P1;durP2;ratioP2;P2;SDS_P1;SDS_P2;PMS_P1;PMS_P2;Temp;Humidity;BMP_temperature;BMP_pressure;BME280_temperature;BME280_humidity;BME280_pressure;Samples;Min_cycle;Max_cycle;Signal;HPM_P1;HPM_P2
2023/01/09 00:01:42;;;;;;;5.78;1.33;;;7.60;99.90;;;;;;5067376;28;20116;-65
2023/01/09 00:04:08;;;;;;;3.25;1.40;;;7.60;99.90;;;;;;5083618;28;20048;-66
2023/01/09 00:06:34;;;;;;;5.47;1.38;;;7.60;99.90;;;;;;5079088;28;20039;-65
2023/01/09 00:09:01;;;;;;;4.75;1.40;;;7.60;99.90;;;;;;5080847;28;20135;-66
2023/01/09 00:11:26;;;;;;;2.28;1.15;;;7.70;99.90;;;;;;5080472;28;20032;-66
2023/01/09 00:13:52;;;;;;;5.55;1.35;;;7.70;99.90;;;;;;5076321;28;20029;-66
2023/01/09 00:16:18;;;;;;;7.18;1.70;;;7.70;99.90;;;;;;5078713;28;20067;-66
2023/01/09 00:18:44;;;;;;;6.38;2.03;;;7.70;99.90;;;;;;5062085;28;20105;-66
2023/01/09 00:21:11;;;;;;;6.90;1.48;;;7.70;99.90;;;;;;5060389;28;20765;-65
2023/01/09 00:23:37;;;;;;;6.70;1.50;;;7.70;99.90;;;;;;5082574;28;20051;-65
2023/01/09 00:26:15;;;;;;;6.13;1.63;;;7.60;99.90;;;;;;5079644;28;20127;-65
2023/01/09 00:28:41;;;;;;;4.93;1.80;;;7.60;99.90;;;;;;5079136;28;20048;-65
2023/01/09 00:31:08;;;;;;;6.13;1.42;;;7.50;99.90;;;;;;5083708;28;20059;-65
2023/01/09 00:33:39;;;;;;;6.63;1.50;;;7.50;99.90;;;;;;5078510;28;20024;-64
2023/01/09 00:36:05;;;;;;;4.05;1.35;;;7.40;99.90;;;;;;5082944;28;20246;-64
2023/01/09 00:38:31;;;;;;;3.00;1.17;;;7.40;99.90;;;;;;5078259;28;20496;-64
2023/01/09 00:40:58;;;;;;;5.25;1.83;;;7.40;99.90;;;;;;5061016;28;20037;-65
2023/01/09 00:43:29;;;;;;;5.00;1.55;;;7.30;99.90;;;;;;5079453;28;20369;-65
2023/01/09 00:45:55;;;;;;;6.22;1.00;;;7.30;99.90;;;;;;5058296;28;20052;-65
2023/01/09 00:48:28;;;;;;;3.92;0.82;;;7.20;99.90;;;;;;5048613;28;20051;-65
2023/01/09 00:50:57;;;;;;;1.95;0.68;;;7.20;99.90;;;;;;5077477;28;20044;-65
2023/01/09 00:53:26;;;;;;;3.25;0.57;;;7.20;99.90;;;;;;5073066;28;20457;-65
2023/01/09 00:55:53;;;;;;;2.60;0.50;;;7.20;99.90;;;;;;5077113;28;20496;-64
2023/01/09 00:58:19;;;;;;;1.65;0.43;;;7.10;99.90;;;;;;5064116;28;20079;-66
2023/01/09 01:00:44;;;;;;;2.10;0.40;;;7.10;99.90;;;;;;5081415;28;20056;-65
2023/01/09 01:03:10;;;;;;;2.95;0.60;;;7.10;99.90;;;;;;5080080;28;20041;-65
2023/01/09 01:08:20;;;;;;;3.43;0.80;;;7.00;99.90;;;;;;5058953;28;20118;-65
2023/01/09 01:10:47;;;;;;;2.10;0.40;;;6.90;99.90;;;;;;5081261;28;20089;-65
2023/01/09 01:13:13;;;;;;;1.88;0.30;;;6.90;99.90;;;;;;5079336;28;20484;-66
2023/01/09 01:15:40;;;;;;;1.38;0.25;;;6.90;99.90;;;;;;5061165;28;20117;-65
2023/01/09 01:18:06;;;;;;;2.08;0.35;;;6.80;99.90;;;;;;5060718;28;20181;-65
2023/01/09 01:20:32;;;;;;;2.22;0.40;;;6.80;99.90;;;;;;5081947;28;20131;-65
2023/01/09 01:22:58;;;;;;;1.83;0.20;;;6.70;99.90;;;;;;5080189;28;20505;-65
2023/01/09 01:25:24;;;;;;;0.20;0.20;;;6.70;99.90;;;;;;5078930;28;20036;-66
2023/01/09 01:27:50;;;;;;;0.80;0.30;;;6.70;99.90;;;;;;5061322;28;20032;-66
2023/01/09 01:30:17;;;;;;;2.85;0.40;;;6.60;99.90;;;;;;5078938;28;20059;-65
2023/01/09 01:32:43;;;;;;;2.45;0.50;;;6.60;99.90;;;;;;5048629;28;20089;-66
2023/01/09 01:35:10;;;;;;;3.60;0.45;;;6.60;99.90;;;;;;5059503;28;20041;-65
2023/01/09 01:37:37;;;;;;;2.42;0.40;;;6.60;99.90;;;;;;5082725;28;20051;-65
2023/01/09 01:40:05;;;;;;;2.80;0.63;;;6.50;99.90;;;;;;5076705;28;20033;-66
2023/01/09 01:42:31;;;;;;;1.67;0.60;;;6.50;99.90;;;;;;5079747;28;20622;-66
2023/01/09 01:45:27;;;;;;;2.38;0.85;;;6.50;99.90;;;;;;5081167;28;20036;-65
2023/01/09 01:48:00;;;;;;;3.28;1.45;;;6.50;99.90;;;;;;5083184;28;20052;-65
2023/01/09 01:50:33;;;;;;;4.30;0.80;;;6.50;99.90;;;;;;5062818;28;20040;-65
2023/01/09 01:53:17;;;;;;;3.97;0.90;;;6.50;99.90;;;;;;5067120;28;20044;-65
2023/01/09 01:56:07;;;;;;;2.88;0.77;;;6.50;99.90;;;;;;5083027;28;20110;-66
2023/01/09 01:58:54;;;;;;;3.40;1.50;;;6.50;99.90;;;;;;5049587;28;20039;-66
2023/01/09 02:01:21;;;;;;;3.78;1.15;;;6.60;99.90;;;;;;5079994;28;20032;-68
2023/01/09 02:03:48;;;;;;;4.05;1.13;;;6.60;99.90;;;;;;5085374;28;20071;-68
2023/01/09 02:06:14;;;;;;;3.85;1.52;;;6.60;99.90;;;;;;5067311;28;20076;-68
2023/01/09 02:08:41;;;;;;;3.08;1.40;;;6.60;99.90;;;;;;5068745;28;20054;-68
2023/01/09 02:11:06;;;;;;;6.07;1.23;;;6.60;99.90;;;;;;5060894;28;20097;-68
2023/01/09 02:13:37;;;;;;;5.80;1.30;;;6.60;99.90;;;;;;5063451;28;20044;-68
2023/01/09 02:16:15;;;;;;;4.13;1.27;;;6.60;99.90;;;;;;5083773;28;20085;-68
2023/01/09 02:19:00;;;;;;;3.65;1.20;;;6.60;99.90;;;;;;5061776;28;20066;-67
2023/01/09 02:22:00;;;;;;;6.87;1.10;;;6.50;99.90;;;;;;5079624;28;20040;-68
2023/01/09 02:24:49;;;;;;;2.30;1.20;;;6.60;99.90;;;;;;5083860;28;20071;-68
2023/01/09 02:27:24;;;;;;;3.55;1.15;;;6.50;99.90;;;;;;5063982;28;20169;-68
2023/01/09 02:30:23;;;;;;;7.47;1.65;;;6.50;99.90;;;;;;5083217;28;20364;-68
2023/01/09 02:33:14;;;;;;;4.20;1.20;;;6.40;99.90;;;;;;5085580;28;20183;-68
2023/01/09 02:35:46;;;;;;;4.70;1.23;;;6.40;99.90;;;;;;5084292;28;20048;-68
2023/01/09 02:38:14;;;;;;;4.97;1.30;;;6.30;99.90;;;;;;5078904;28;20044;-68
2023/01/09 02:40:52;;;;;;;5.68;1.70;;;6.30;99.90;;;;;;5084088;28;20039;-68
2023/01/09 02:43:18;;;;;;;4.57;1.67;;;6.30;99.90;;;;;;5084533;28;20046;-68
2023/01/09 02:45:44;;;;;;;5.80;1.67;;;6.20;99.90;;;;;;5085286;28;20074;-68
2023/01/09 02:48:10;;;;;;;6.68;1.73;;;6.20;99.90;;;;;;5081236;28;20037;-68
2023/01/09 02:50:45;;;;;;;5.22;1.77;;;6.20;99.90;;;;;;5069802;28;20059;-68
2023/01/09 02:53:23;;;;;;;6.72;1.73;;;6.10;99.90;;;;;;5079624;28;20376;-68
2023/01/09 02:56:10;;;;;;;11.20;2.00;;;6.10;99.90;;;;;;5062677;28;20060;-68
2023/01/09 02:59:27;;;;;;;6.30;1.63;;;6.00;99.90;;;;;;5083272;28;20052;-68
2023/01/09 03:02:06;;;;;;;4.07;2.03;;;6.00;99.90;;;;;;5007921;28;20545;-68
2023/01/09 03:04:37;;;;;;;6.85;2.00;;;5.90;99.90;;;;;;5055408;28;20053;-68
2023/01/09 03:07:23;;;;;;;6.47;1.63;;;5.90;99.90;;;;;;5059904;28;20052;-67
2023/01/09 03:09:53;;;;;;;7.00;1.77;;;5.80;99.90;;;;;;5084908;28;20059;-68
2023/01/09 03:12:23;;;;;;;5.75;1.88;;;5.80;99.90;;;;;;5070755;28;20197;-68
2023/01/09 03:14:52;;;;;;;8.82;2.20;;;5.80;99.90;;;;;;5082491;28;20522;-68
2023/01/09 03:17:24;;;;;;;7.80;1.90;;;5.70;99.90;;;;;;5060255;28;20119;-68
2023/01/09 03:19:53;;;;;;;6.47;1.90;;;5.60;99.90;;;;;;5080364;28;20028;-68
2023/01/09 03:22:18;;;;;;;7.15;2.05;;;5.60;99.90;;;;;;5080674;28;20584;-67
2023/01/09 03:24:44;;;;;;;5.03;2.05;;;5.60;99.90;;;;;;5086756;28;20059;-68
2023/01/09 03:27:10;;;;;;;7.22;2.40;;;5.50;99.90;;;;;;5082659;28;20036;-68
2023/01/09 03:29:36;;;;;;;6.35;1.67;;;5.50;99.90;;;;;;5067317;28;20414;-68
2023/01/09 03:32:02;;;;;;;6.82;2.28;;;5.40;99.90;;;;;;5064708;28;20532;-68
2023/01/09 03:34:27;;;;;;;6.68;2.47;;;5.30;99.90;;;;;;5063916;28;20193;-68
2023/01/09 03:36:53;;;;;;;9.98;2.22;;;5.30;99.90;;;;;;5086817;28;20032;-68
2023/01/09 03:39:19;;;;;;;8.20;2.58;;;5.20;99.90;;;;;;5067743;28;20040;-68
2023/01/09 03:41:44;;;;;;;7.55;2.15;;;5.20;99.90;;;;;;5088288;28;20032;-68
2023/01/09 03:44:10;;;;;;;6.57;2.15;;;5.20;99.90;;;;;;5080641;28;20086;-68
2023/01/09 03:46:36;;;;;;;10.30;2.40;;;5.10;99.90;;;;;;5079342;28;20555;-68
2023/01/09 03:49:02;;;;;;;9.50;2.33;;;5.10;99.90;;;;;;5059625;28;20434;-68
2023/01/09 03:51:27;;;;;;;6.68;2.20;;;5.10;99.90;;;;;;5063983;28;20102;-68
2023/01/09 03:53:53;;;;;;;7.95;2.30;;;5.10;99.90;;;;;;5082553;28;20044;-68
2023/01/09 03:56:19;;;;;;;7.35;2.28;;;5.00;99.90;;;;;;5082906;28;20614;-68
2023/01/09 03:58:44;;;;;;;9.90;2.72;;;5.00;99.90;;;;;;5086737;28;20122;-68
2023/01/09 04:01:11;;;;;;;7.85;2.53;;;5.00;99.90;;;;;;5082497;28;20039;-68
2023/01/09 04:03:38;;;;;;;7.22;3.00;;;5.00;99.90;;;;;;5061088;28;20582;-68
2023/01/09 04:06:04;;;;;;;10.73;3.10;;;4.90;99.90;;;;;;5082166;28;20038;-68
2023/01/09 04:08:30;;;;;;;9.65;3.13;;;4.90;99.90;;;;;;5081739;28;20043;-68
2023/01/09 04:10:56;;;;;;;8.50;2.67;;;4.90;99.90;;;;;;5061225;28;20043;-68
2023/01/09 04:13:22;;;;;;;7.13;3.22;;;4.90;99.90;;;;;;5083585;28;20032;-68
2023/01/09 04:15:47;;;;;;;9.35;3.35;;;4.90;99.90;;;;;;5079298;28;20586;-68
2023/01/09 04:18:14;;;;;;;10.52;3.90;;;4.90;99.90;;;;;;5064187;28;20044;-68
2023/01/09 04:20:40;;;;;;;5.30;3.97;;;4.90;99.90;;;;;;5081266;28;20044;-68
2023/01/09 04:23:06;;;;;;;9.60;4.40;;;4.90;99.90;;;;;;5078678;28;20048;-67
2023/01/09 04:25:32;;;;;;;8.20;4.10;;;4.90;99.90;;;;;;5079275;28;20321;-68
2023/01/09 04:27:58;;;;;;;8.65;5.13;;;4.90;99.90;;;;;;5084673;28;20035;-67
2023/01/09 04:30:23;;;;;;;13.43;5.35;;;4.90;99.90;;;;;;5082090;28;20513;-68
2023/01/09 04:32:50;;;;;;;13.02;5.85;;;4.90;99.90;;;;;;5063554;28;20116;-68
2023/01/09 04:35:17;;;;;;;13.38;6.88;;;4.90;99.90;;;;;;5065675;28;20203;-68
2023/01/09 04:37:42;;;;;;;11.40;6.47;;;4.90;99.90;;;;;;5081276;28;20119;-67
2023/01/09 04:40:09;;;;;;;10.98;6.35;;;4.90;99.90;;;;;;5059541;28;20116;-68
2023/01/09 04:42:36;;;;;;;13.52;6.35;;;4.80;99.90;;;;;;5084916;28;20052;-68
2023/01/09 04:45:02;;;;;;;16.77;8.20;;;4.80;99.90;;;;;;5077488;28;20117;-68
2023/01/09 04:47:30;;;;;;;17.40;8.60;;;4.70;99.90;;;;;;5046751;28;20058;-68
2023/01/09 04:49:56;;;;;;;18.10;8.70;;;4.80;99.90;;;;;;5079192;28;20052;-67
2023/01/09 04:52:22;;;;;;;14.75;9.75;;;4.70;99.90;;;;;;5060192;28;20045;-67
2023/01/09 04:54:47;;;;;;;15.20;9.80;;;4.70;99.90;;;;;;5070005;28;20033;-68
2023/01/09 04:57:13;;;;;;;14.70;10.40;;;4.70;99.90;;;;;;5078420;28;20060;-67
2023/01/09 04:59:39;;;;;;;22.35;10.57;;;4.70;99.90;;;;;;5085261;28;20036;-68
2023/01/09 05:02:04;;;;;;;17.25;11.23;;;4.70;99.90;;;;;;5059767;28;20047;-67
2023/01/09 05:04:30;;;;;;;15.07;11.50;;;4.70;99.90;;;;;;5077892;28;20044;-68
2023/01/09 05:06:56;;;;;;;17.15;12.05;;;4.70;99.90;;;;;;5083980;28;20045;-67
2023/01/09 05:09:22;;;;;;;17.17;12.68;;;4.70;99.90;;;;;;5062265;28;20086;-67
2023/01/09 05:11:48;;;;;;;18.65;12.80;;;4.70;99.90;;;;;;5075330;28;20512;-68
2023/01/09 05:14:13;;;;;;;18.52;12.85;;;4.70;99.90;;;;;;5080108;28;20047;-67
2023/01/09 05:16:39;;;;;;;21.27;13.85;;;4.60;99.90;;;;;;5078773;28;20469;-67
2023/01/09 05:19:05;;;;;;;17.48;13.30;;;4.60;99.90;;;;;;5082465;28;20284;-68
2023/01/09 05:21:31;;;;;;;23.15;13.55;;;4.60;99.90;;;;;;5078641;28;20464;-67
2023/01/09 05:23:56;;;;;;;18.88;13.20;;;4.60;99.90;;;;;;5078996;28;20072;-68
2023/01/09 05:26:23;;;;;;;19.17;13.63;;;4.60;99.90;;;;;;5081928;28;20041;-68
2023/01/09 05:28:53;;;;;;;19.38;13.48;;;4.70;99.90;;;;;;5082752;28;20485;-67
2023/01/09 05:31:19;;;;;;;19.50;13.82;;;4.70;99.90;;;;;;5089961;28;20114;-68
2023/01/09 05:33:45;;;;;;;19.48;12.82;;;4.60;99.90;;;;;;5066517;28;20123;-68
2023/01/09 05:36:11;;;;;;;22.95;13.90;;;4.60;99.90;;;;;;5088130;28;20043;-68
2023/01/09 05:38:37;;;;;;;19.63;12.80;;;4.60;99.90;;;;;;5081782;28;20044;-68
2023/01/09 05:41:03;;;;;;;20.55;12.98;;;4.60;99.90;;;;;;5082443;28;20157;-68
2023/01/09 05:43:29;;;;;;;21.60;13.68;;;4.60;99.90;;;;;;5061502;28;20094;-68
2023/01/09 05:45:55;;;;;;;21.27;13.32;;;4.60;99.90;;;;;;5085175;28;20482;-68
2023/01/09 05:48:20;;;;;;;17.13;13.27;;;4.70;99.90;;;;;;5084806;28;20075;-67
2023/01/09 05:50:46;;;;;;;17.90;13.27;;;4.70;99.90;;;;;;5065472;28;20101;-68
2023/01/09 05:53:12;;;;;;;20.63;13.10;;;4.70;99.90;;;;;;5084204;28;20040;-67
2023/01/09 05:55:38;;;;;;;18.98;13.75;;;4.80;99.90;;;;;;5068887;28;20052;-67
2023/01/09 05:58:03;;;;;;;18.05;12.68;;;4.80;99.90;;;;;;5064563;28;20235;-67
2023/01/09 06:00:30;;;;;;;18.80;12.75;;;4.90;99.90;;;;;;5067480;28;20528;-67
2023/01/09 06:02:55;;;;;;;20.08;13.15;;;4.90;99.90;;;;;;5081991;28;20044;-67
2023/01/09 06:05:21;;;;;;;21.02;13.27;;;5.00;99.90;;;;;;5079397;28;20442;-68
2023/01/09 06:07:47;;;;;;;16.80;12.27;;;5.00;99.90;;;;;;5087247;28;20508;-68
2023/01/09 06:10:13;;;;;;;19.77;12.07;;;5.10;99.90;;;;;;5063274;28;20036;-68
2023/01/09 06:12:40;;;;;;;16.75;12.25;;;5.10;99.90;;;;;;5087586;28;20041;-67
2023/01/09 06:15:06;;;;;;;18.73;11.63;;;5.10;99.90;;;;;;5086403;28;20591;-67
2023/01/09 06:17:32;;;;;;;16.95;10.38;;;5.20;99.90;;;;;;5083560;28;20040;-68
2023/01/09 06:19:57;;;;;;;22.42;11.32;;;5.20;99.90;;;;;;5065734;28;20189;-68
2023/01/09 06:22:23;;;;;;;15.70;10.88;;;5.20;99.90;;;;;;5085713;28;20044;-67
2023/01/09 06:24:49;;;;;;;16.10;10.98;;;5.20;99.90;;;;;;5085120;28;20036;-68
2023/01/09 06:27:14;;;;;;;15.18;10.20;;;5.20;99.90;;;;;;5084806;28;20040;-67
2023/01/09 06:29:40;;;;;;;16.70;10.52;;;5.20;99.90;;;;;;5069430;28;20056;-67
2023/01/09 06:32:06;;;;;;;14.82;9.52;;;5.20;99.90;;;;;;5086823;28;20044;-67
2023/01/09 06:34:32;;;;;;;15.60;9.15;;;5.20;99.90;;;;;;5086222;28;20051;-67
2023/01/09 06:36:57;;;;;;;12.35;8.93;;;5.20;99.90;;;;;;5086713;28;20126;-67
2023/01/09 06:39:23;;;;;;;13.80;8.13;;;5.20;99.90;;;;;;5081462;28;20511;-68
2023/01/09 06:41:49;;;;;;;11.73;7.95;;;5.20;99.90;;;;;;5086772;28;20044;-67
2023/01/09 06:44:15;;;;;;;13.48;7.20;;;5.20;99.90;;;;;;5064208;28;20055;-67
2023/01/09 06:46:40;;;;;;;14.23;6.78;;;5.20;99.90;;;;;;5061773;28;20044;-67
2023/01/09 06:49:08;;;;;;;12.20;7.10;;;5.10;99.90;;;;;;5062527;28;20084;-67
2023/01/09 06:51:33;;;;;;;9.70;6.53;;;5.10;99.90;;;;;;5065934;28;20047;-68
2023/01/09 06:53:59;;;;;;;9.70;7.57;;;5.00;99.90;;;;;;5079956;28;20036;-68
2023/01/09 06:56:25;;;;;;;13.27;6.68;;;4.90;99.90;;;;;;5079431;28;20062;-68
2023/01/09 06:58:50;;;;;;;9.32;6.07;;;5.00;99.90;;;;;;5080942;28;20054;-67
2023/01/09 07:01:16;;;;;;;10.10;6.35;;;4.90;99.90;;;;;;5063628;28;20045;-67
2023/01/09 07:03:43;;;;;;;13.52;6.55;;;5.00;99.90;;;;;;5080798;28;20053;-67
2023/01/09 07:06:09;;;;;;;13.90;7.13;;;5.00;99.90;;;;;;5082243;28;20067;-67
2023/01/09 07:08:34;;;;;;;10.95;6.50;;;5.00;99.90;;;;;;5064720;28;20087;-67
2023/01/09 07:11:00;;;;;;;12.38;6.70;;;5.10;99.90;;;;;;5084999;28;20037;-67
2023/01/09 07:13:26;;;;;;;16.25;6.07;;;5.00;99.90;;;;;;5062019;28;20059;-67
2023/01/09 07:15:52;;;;;;;12.20;6.28;;;5.10;99.90;;;;;;5060314;28;20040;-67
2023/01/09 07:18:18;;;;;;;12.75;6.43;;;5.10;99.90;;;;;;5085670;28;20032;-68
2023/01/09 07:20:44;;;;;;;11.60;5.82;;;5.10;99.90;;;;;;5082124;28;20063;-67
2023/01/09 07:23:14;;;;;;;12.70;5.85;;;5.20;99.90;;;;;;5080614;28;20467;-68
2023/01/09 07:25:43;;;;;;;10.52;5.47;;;5.20;99.90;;;;;;5061875;28;20052;-67
2023/01/09 07:28:09;;;;;;;10.80;5.60;;;5.20;99.90;;;;;;5082859;28;20072;-67
2023/01/09 07:30:35;;;;;;;12.15;5.45;;;5.20;99.90;;;;;;5062931;28;20115;-67
2023/01/09 07:33:01;;;;;;;9.32;5.13;;;5.20;99.90;;;;;;5059753;28;20056;-67
2023/01/09 07:35:26;;;;;;;9.18;5.18;;;5.30;99.90;;;;;;5081933;28;20032;-67
2023/01/09 07:37:52;;;;;;;12.50;5.55;;;5.30;99.90;;;;;;5077008;28;20046;-67
2023/01/09 07:40:18;;;;;;;9.77;5.45;;;5.30;99.90;;;;;;5063119;28;20039;-68
2023/01/09 07:42:44;;;;;;;8.07;4.93;;;5.30;99.90;;;;;;5074585;28;20115;-67
2023/01/09 07:45:10;;;;;;;10.45;4.90;;;5.30;99.90;;;;;;5085002;28;20357;-67
2023/01/09 07:47:36;;;;;;;9.95;4.63;;;5.30;99.90;;;;;;5061630;28;20059;-67
2023/01/09 07:50:01;;;;;;;9.45;5.00;;;5.30;99.90;;;;;;5058628;28;20048;-67
2023/01/09 07:52:27;;;;;;;9.38;4.45;;;5.30;99.90;;;;;;5077336;28;20044;-67
2023/01/09 07:54:53;;;;;;;9.48;5.18;;;5.30;99.90;;;;;;5083882;28;20039;-67
2023/01/09 07:57:18;;;;;;;9.73;4.57;;;5.30;99.90;;;;;;5060893;28;20219;-67
2023/01/09 07:59:44;;;;;;;11.93;5.47;;;5.30;99.90;;;;;;5080411;28;20045;-67
2023/01/09 08:02:11;;;;;;;8.40;3.95;;;5.30;99.90;;;;;;5079654;28;20036;-67
2023/01/09 08:04:36;;;;;;;11.20;4.80;;;5.30;99.90;;;;;;5057235;28;20044;-67
2023/01/09 08:07:02;;;;;;;9.55;4.15;;;5.30;99.90;;;;;;5078163;28;20055;-67
2023/01/09 08:09:29;;;;;;;9.85;5.18;;;5.40;99.90;;;;;;5081930;28;20045;-67
2023/01/09 08:11:56;;;;;;;6.70;4.10;;;5.40;99.90;;;;;;5080799;28;20150;-67
2023/01/09 08:14:22;;;;;;;7.88;3.90;;;5.40;99.90;;;;;;5082233;28;20036;-67
2023/01/09 08:16:48;;;;;;;9.88;3.90;;;5.40;99.90;;;;;;5080952;28;20119;-67
2023/01/09 08:19:13;;;;;;;9.35;4.30;;;5.40;99.90;;;;;;5077369;28;20159;-67
2023/01/09 08:21:39;;;;;;;9.95;3.90;;;5.50;99.90;;;;;;5080918;28;20063;-67
2023/01/09 08:24:05;;;;;;;8.80;3.63;;;5.50;99.90;;;;;;5076939;28;20033;-67
2023/01/09 08:26:31;;;;;;;9.30;3.58;;;5.50;99.90;;;;;;5083423;28;20107;-67
2023/01/09 08:28:57;;;;;;;7.88;3.13;;;5.50;99.90;;;;;;5079471;28;20149;-67
2023/01/09 08:31:23;;;;;;;11.35;3.80;;;5.60;99.90;;;;;;5081653;28;20036;-68
2023/01/09 08:33:49;;;;;;;11.95;3.60;;;5.60;99.90;;;;;;5079173;28;20097;-67
2023/01/09 08:36:14;;;;;;;8.93;3.92;;;5.60;99.90;;;;;;5043856;28;20072;-68
2023/01/09 08:38:40;;;;;;;9.32;3.88;;;5.60;99.90;;;;;;5064049;28;20517;-68
2023/01/09 08:49:39;;;;;;;11.43;4.13;;;5.70;99.90;;;;;;4989524;28;20046;-68
2023/01/09 08:52:06;;;;;;;8.57;3.75;;;5.70;99.90;;;;;;4989829;28;20089;-68
2023/01/09 08:54:32;;;;;;;8.95;4.18;;;5.80;99.90;;;;;;5030501;28;20040;-67
2023/01/09 08:56:58;;;;;;;11.35;4.18;;;5.80;99.90;;;;;;5066355;28;20064;-67
2023/01/09 08:59:24;;;;;;;11.82;4.65;;;5.80;99.90;;;;;;5086411;28;20032;-67
2023/01/09 09:01:49;;;;;;;10.02;4.13;;;5.80;99.90;;;;;;5068257;28;20044;-67
2023/01/09 09:04:15;;;;;;;10.15;4.10;;;5.90;99.90;;;;;;5091382;28;20040;-67
2023/01/09 09:06:41;;;;;;;8.38;3.45;;;5.90;99.90;;;;;;5086639;28;20131;-68
2023/01/09 09:09:06;;;;;;;12.60;4.30;;;6.00;99.90;;;;;;5062118;28;20127;-67
2023/01/09 09:11:33;;;;;;;11.25;3.92;;;6.10;99.90;;;;;;5088978;28;20028;-67
2023/01/09 09:13:59;;;;;;;6.82;3.22;;;6.00;99.90;;;;;;5070054;28;20047;-67
2023/01/09 09:16:25;;;;;;;10.30;3.90;;;6.10;99.90;;;;;;5090102;28;20052;-67
2023/01/09 09:18:51;;;;;;;9.35;3.60;;;6.20;99.90;;;;;;5080092;28;20053;-67
2023/01/09 09:21:17;;;;;;;10.02;3.78;;;6.20;99.90;;;;;;5087158;28;20046;-67
2023/01/09 09:23:43;;;;;;;11.05;4.00;;;6.20;99.90;;;;;;5068282;28;20044;-67
2023/01/09 09:26:09;;;;;;;9.77;3.42;;;6.30;99.90;;;;;;5088930;28;20348;-67
2023/01/09 09:28:35;;;;;;;13.65;3.70;;;6.40;99.90;;;;;;5084047;28;20036;-67
2023/01/09 09:31:04;;;;;;;15.50;4.00;;;6.50;99.90;;;;;;5080748;28;20058;-67
2023/01/09 09:33:30;;;;;;;7.45;3.20;;;6.50;99.90;;;;;;5086281;28;20035;-67
2023/01/09 09:35:58;;;;;;;14.73;3.65;;;6.50;99.90;;;;;;5085348;28;20404;-67
2023/01/09 09:38:23;;;;;;;10.07;3.05;;;6.50;99.90;;;;;;5084258;28;20379;-67
2023/01/09 09:47:22;;;;;;;10.07;3.17;;;6.50;99.90;;;;;;5079968;28;20072;-67
2023/01/09 09:50:03;;;;;;;13.55;3.45;;;6.50;99.90;;;;;;5081938;28;20036;-67
2023/01/09 09:52:40;;;;;;;7.57;3.00;;;6.50;99.90;;;;;;5084243;28;20036;-67
2023/01/09 09:55:16;;;;;;;10.48;3.22;;;6.50;99.90;;;;;;5081659;28;20723;-67
2023/01/09 09:57:43;;;;;;;10.50;4.47;;;6.50;99.90;;;;;;5073730;28;20052;-67
2023/01/09 10:00:18;;;;;;;10.38;3.38;;;6.50;99.90;;;;;;5082303;28;20063;-67
2023/01/09 10:02:59;;;;;;;6.85;2.53;;;6.50;99.90;;;;;;5082758;28;20468;-67
2023/01/09 10:05:33;;;;;;;7.25;3.15;;;6.50;99.90;;;;;;5081975;28;20107;-67
2023/01/09 10:08:38;;;;;;;9.50;3.13;;;6.50;99.90;;;;;;5076591;28;20044;-67
2023/01/09 10:11:12;;;;;;;7.90;3.00;;;6.50;99.90;;;;;;5035152;28;20052;-67
2023/01/09 10:16:39;;;;;;;10.50;2.90;;;6.60;99.90;;;;;;5080424;28;20042;-67
2023/01/09 10:19:31;;;;;;;10.95;2.88;;;6.60;99.90;;;;;;5083818;28;20044;-67
2023/01/09 10:22:39;;;;;;;7.95;2.85;;;6.60;99.90;;;;;;5075694;28;20059;-67
2023/01/09 10:25:05;;;;;;;8.60;2.92;;;6.60;99.90;;;;;;5038777;28;20055;-67
2023/01/09 10:28:01;;;;;;;8.52;2.60;;;6.60;99.90;;;;;;5080488;28;20111;-67
2023/01/09 10:30:48;;;;;;;10.48;3.05;;;6.70;99.90;;;;;;5085286;28;20131;-67
2023/01/09 10:33:33;;;;;;;9.32;3.28;;;6.70;99.90;;;;;;5065365;28;20036;-67
2023/01/09 10:36:18;;;;;;;8.93;3.75;;;6.70;99.90;;;;;;5083994;28;20433;-67
2023/01/09 10:38:47;;;;;;;9.82;3.97;;;6.70;99.90;;;;;;5063498;28;20058;-67
2023/01/09 10:41:38;;;;;;;6.88;3.03;;;6.70;99.90;;;;;;5084703;28;20048;-67
2023/01/09 10:44:58;;;;;;;7.63;3.08;;;6.80;99.90;;;;;;5081265;28;20472;-67
2023/01/09 10:47:33;;;;;;;6.00;2.40;;;6.80;99.90;;;;;;5039938;28;20091;-67
2023/01/09 10:50:00;;;;;;;7.10;2.63;;;6.80;99.90;;;;;;5081799;28;20105;-67
2023/01/09 10:52:40;;;;;;;8.38;2.72;;;6.80;99.90;;;;;;5082122;28;20044;-67
2023/01/09 10:55:24;;;;;;;5.72;3.08;;;6.90;99.90;;;;;;5083459;28;20044;-67
2023/01/09 10:58:00;;;;;;;9.23;3.45;;;6.90;99.90;;;;;;5082744;28;20066;-67
2023/01/09 11:00:26;;;;;;;7.22;3.25;;;6.90;99.90;;;;;;5068453;28;20040;-67
2023/01/09 11:02:53;;;;;;;4.80;2.90;;;7.00;99.90;;;;;;5081386;28;20036;-67
2023/01/09 11:05:22;;;;;;;6.22;3.28;;;7.00;99.90;;;;;;5081190;28;20112;-67
2023/01/09 11:08:10;;;;;;;7.82;3.38;;;7.00;99.90;;;;;;5078760;28;20050;-67
2023/01/09 11:10:48;;;;;;;9.52;3.28;;;7.00;99.90;;;;;;5068563;28;20143;-67
2023/01/09 11:13:20;;;;;;;8.70;3.65;;;7.00;99.90;;;;;;5075625;28;20395;-67
2023/01/09 11:16:07;;;;;;;9.85;3.90;;;7.00;99.90;;;;;;5080227;28;20491;-67
2023/01/09 11:18:37;;;;;;;6.35;3.45;;;7.10;99.90;;;;;;5082081;28;20044;-67
2023/01/09 11:21:26;;;;;;;9.23;4.35;;;7.00;99.90;;;;;;5060116;28;20090;-67
2023/01/09 11:24:07;;;;;;;9.95;4.18;;;7.10;99.90;;;;;;5076978;28;20068;-67
2023/01/09 11:26:33;;;;;;;10.55;4.72;;;7.10;99.90;;;;;;5080672;28;20041;-67
2023/01/09 11:29:11;;;;;;;8.60;5.20;;;7.10;99.90;;;;;;5077505;28;20186;-67
2023/01/09 11:31:38;;;;;;;11.88;5.15;;;7.10;99.90;;;;;;5082487;28;20040;-67
2023/01/09 11:34:12;;;;;;;8.80;5.13;;;7.10;99.90;;;;;;5079160;28;20149;-67
2023/01/09 11:36:38;;;;;;;9.00;5.80;;;7.10;99.90;;;;;;5085005;28;20487;-67
2023/01/09 11:39:03;;;;;;;12.02;5.75;;;7.10;99.90;;;;;;5078463;28;20038;-67
2023/01/09 11:41:35;;;;;;;9.43;5.93;;;7.10;99.90;;;;;;5077015;28;20375;-67
2023/01/09 11:44:03;;;;;;;9.45;6.15;;;7.10;99.90;;;;;;5080637;28;20430;-67
2023/01/09 11:46:40;;;;;;;11.15;5.97;;;7.10;99.90;;;;;;5079521;28;20040;-67
2023/01/09 11:49:12;;;;;;;12.40;6.68;;;7.10;99.90;;;;;;5078185;28;20638;-67
2023/01/09 11:51:38;;;;;;;10.10;6.43;;;7.10;99.90;;;;;;5062780;28;20131;-67
2023/01/09 11:54:07;;;;;;;10.45;6.25;;;7.10;99.90;;;;;;5081183;28;20074;-67
2023/01/09 11:56:35;;;;;;;8.90;6.13;;;7.10;99.90;;;;;;5078252;28;20059;-67
2023/01/09 11:59:01;;;;;;;11.10;6.88;;;7.10;99.90;;;;;;5062288;28;20051;-67
2023/01/09 12:01:36;;;;;;;14.35;7.10;;;7.10;99.90;;;;;;5082259;28;20078;-67
2023/01/09 12:04:20;;;;;;;13.13;7.60;;;7.20;99.90;;;;;;5083337;28;20039;-67
2023/01/09 12:06:51;;;;;;;15.88;7.82;;;7.20;99.90;;;;;;5061491;28;20050;-67
2023/01/09 12:09:48;;;;;;;15.43;7.47;;;7.30;99.90;;;;;;5080831;28;20039;-67
2023/01/09 12:12:34;;;;;;;10.75;8.05;;;7.30;99.90;;;;;;5028236;28;20495;-67
2023/01/09 12:15:24;;;;;;;10.65;8.00;;;7.30;99.90;;;;;;5065369;28;20051;-67
2023/01/09 12:18:08;;;;;;;12.35;8.45;;;7.40;99.90;;;;;;5081675;28;20101;-67
2023/01/09 12:20:51;;;;;;;12.45;8.73;;;7.40;99.90;;;;;;5078480;28;20554;-67
2023/01/09 12:23:45;;;;;;;12.07;8.02;;;7.40;99.90;;;;;;5081026;28;20033;-67
2023/01/09 12:26:27;;;;;;;12.20;8.52;;;7.40;99.90;;;;;;5084470;28;20497;-67
2023/01/09 12:29:30;;;;;;;14.18;9.02;;;7.40;99.90;;;;;;5078586;28;20037;-67
2023/01/09 12:32:12;;;;;;;9.57;8.20;;;7.50;99.90;;;;;;5067082;28;20064;-67
2023/01/09 12:34:58;;;;;;;12.95;9.07;;;7.50;99.90;;;;;;5065526;28;20049;-67
2023/01/09 12:37:54;;;;;;;13.18;8.57;;;7.50;99.90;;;;;;5078159;28;20392;-68
2023/01/09 12:40:26;;;;;;;13.82;8.32;;;7.50;99.90;;;;;;5056518;28;20040;-67
2023/01/09 12:43:02;;;;;;;15.95;9.20;;;7.50;99.90;;;;;;5064621;28;20062;-68
2023/01/09 12:45:54;;;;;;;14.23;9.23;;;7.50;99.90;;;;;;5063417;28;20052;-68
2023/01/09 12:48:30;;;;;;;15.68;8.93;;;7.50;99.90;;;;;;5076771;28;20054;-68
2023/01/09 12:51:04;;;;;;;15.63;9.05;;;7.50;99.90;;;;;;5065143;28;20063;-67
2023/01/09 12:53:51;;;;;;;11.10;8.77;;;7.50;99.90;;;;;;5080609;28;20387;-68
2023/01/09 12:56:36;;;;;;;17.20;9.60;;;7.50;99.90;;;;;;5069361;28;20469;-68
2023/01/09 12:59:16;;;;;;;10.63;9.35;;;7.50;99.90;;;;;;5084389;28;20040;-68
2023/01/09 13:01:45;;;;;;;16.25;9.75;;;7.50;99.90;;;;;;5084023;28;20093;-67
2023/01/09 13:04:16;;;;;;;13.75;9.90;;;7.50;99.90;;;;;;5084083;28;21202;-68
2023/01/09 13:06:49;;;;;;;14.07;9.00;;;7.50;99.90;;;;;;5085489;28;20041;-68
2023/01/09 13:09:57;;;;;;;14.88;9.98;;;7.60;99.90;;;;;;5079341;28;20037;-68
2023/01/09 13:12:24;;;;;;;14.55;9.85;;;7.60;99.90;;;;;;5079342;28;20043;-68
2023/01/09 13:14:55;;;;;;;12.80;9.95;;;7.50;99.90;;;;;;5065379;28;20033;-67
2023/01/09 13:17:39;;;;;;;15.02;9.07;;;7.60;99.90;;;;;;5075015;28;20288;-67
2023/01/09 13:20:26;;;;;;;14.53;9.17;;;7.60;99.90;;;;;;5082113;28;20133;-67
2023/01/09 13:22:53;;;;;;;13.25;8.65;;;7.60;99.90;;;;;;5079119;28;20162;-67
2023/01/09 13:25:40;;;;;;;11.30;8.43;;;7.60;99.90;;;;;;5075014;28;20511;-67
2023/01/09 13:28:24;;;;;;;14.40;7.93;;;7.70;99.90;;;;;;5079357;28;20063;-67
2023/01/09 13:31:17;;;;;;;14.38;8.60;;;7.70;99.90;;;;;;5083820;28;20111;-67